createdAt,value
2022-08-07T00:02:40.718Z,83.20
2022-08-07T00:05:11.189Z,83.50
2022-08-07T00:07:42.916Z,83.60
2022-08-07T00:10:26.417Z,83.30
2022-08-07T00:13:03.335Z,83.60
2022-08-07T00:15:51.045Z,83.80
2022-08-07T00:18:24.603Z,83.20
2022-08-07T00:21:01.442Z,84.00
2022-08-07T00:23:33.397Z,83.50
2022-08-07T00:26:13.251Z,83.80
2022-08-07T00:28:56.969Z,83.20
2022-08-07T00:31:37.256Z,83.30
2022-08-07T00:34:09.821Z,83.50
2022-08-07T00:36:43.603Z,83.80
2022-08-07T00:39:16.842Z,83.60
2022-08-07T00:41:53.515Z,83.20
2022-08-07T00:44:33.357Z,83.70
2022-08-07T00:47:06.349Z,82.80
2022-08-07T00:50:21.529Z,83.00
2022-08-07T00:52:40.536Z,82.80
2022-08-07T00:55:12.926Z,83.70
2022-08-07T00:57:55.951Z,83.30
2022-08-07T01:00:27.927Z,83.80
2022-08-07T01:02:58.769Z,83.80
2022-08-07T01:05:30.647Z,83.40
2022-08-07T01:08:11.309Z,84.00
2022-08-07T01:10:47.760Z,83.70
2022-08-07T01:13:27.374Z,84.00
2022-08-07T01:16:06.873Z,83.90
2022-08-07T01:18:39.096Z,83.50
2022-08-07T01:21:22.928Z,83.70
2022-08-07T01:23:59.996Z,83.70
2022-08-07T01:26:31.535Z,84.10
2022-08-07T01:29:02.867Z,84.50
2022-08-07T01:31:42.582Z,83.90
2022-08-07T01:34:18.748Z,84.10
2022-08-07T01:36:58.129Z,84.10
2022-08-07T01:39:41.201Z,84.20
2022-08-07T01:42:38.884Z,84.10
2022-08-07T01:45:37.338Z,83.50
2022-08-07T01:48:19.169Z,85.20
2022-08-07T01:50:57.355Z,85.10
2022-08-07T01:54:12.160Z,84.80
2022-08-07T01:56:29.839Z,85.10
2022-08-07T01:59:08.211Z,87.10
2022-08-07T02:02:02.405Z,89.40
2022-08-07T02:04:56.322Z,87.50
2022-08-07T02:07:36.129Z,88.20
2022-08-07T02:10:28.483Z,87.90
2022-08-07T02:13:01.664Z,89.20
2022-08-07T02:15:41.408Z,87.90
2022-08-07T02:18:13.323Z,87.50
2022-08-07T02:20:48.661Z,87.60
2022-08-07T02:23:28.313Z,86.90
2022-08-07T02:26:31.285Z,86.00
2022-08-07T02:28:55.919Z,86.40
2022-08-07T02:31:29.437Z,87.00
2022-08-07T02:34:11.286Z,86.80
2022-08-07T02:36:53.999Z,86.40
2022-08-07T02:39:43.229Z,86.90
2022-08-07T02:42:24.474Z,86.80
2022-08-07T02:44:56.021Z,86.50
2022-08-07T02:47:40.147Z,86.40
2022-08-07T02:50:19.200Z,86.30
2022-08-07T02:52:51.330Z,86.50
2022-08-07T02:55:28.454Z,86.60
2022-08-07T02:58:21.879Z,86.70
2022-08-07T03:00:55.156Z,86.40
2022-08-07T03:03:29.598Z,85.50
2022-08-07T03:06:32.041Z,85.30
2022-08-07T03:09:05.830Z,85.00
2022-08-07T03:11:39.112Z,84.70
2022-08-07T03:14:28.019Z,84.80
2022-08-07T03:16:59.343Z,84.40
2022-08-07T03:19:37.269Z,84.10
2022-08-07T03:22:18.711Z,85.20
2022-08-07T03:24:51.798Z,84.50
2022-08-07T03:27:30.366Z,85.50
2022-08-07T03:30:10.696Z,85.90
2022-08-07T03:32:49.387Z,85.70
2022-08-07T03:35:38.042Z,86.80
2022-08-07T03:38:16.449Z,86.70
2022-08-07T03:40:57.123Z,86.70
2022-08-07T03:43:32.278Z,86.70
2022-08-07T03:46:10.568Z,88.00
2022-08-07T03:49:02.940Z,87.50
2022-08-07T03:51:47.871Z,87.40
2022-08-07T03:54:35.488Z,88.40
2022-08-07T03:59:05.587Z,88.40
2022-08-07T04:00:06.316Z,90.00
2022-08-07T04:02:49.772Z,88.10
2022-08-07T04:05:40.603Z,88.50
2022-08-07T04:08:22.033Z,87.10
2022-08-07T04:12:23.653Z,89.20
2022-08-07T04:14:10.509Z,88.10
2022-08-07T04:16:40.383Z,87.90
2022-08-07T04:19:18.384Z,87.60
2022-08-07T04:22:00.185Z,87.20
2022-08-07T04:24:43.876Z,88.20
2022-08-07T04:27:25.112Z,86.30
2022-08-07T04:30:02.338Z,87.70
2022-08-07T04:32:58.106Z,86.60
2022-08-07T04:35:35.513Z,86.70
2022-08-07T04:38:13.300Z,88.80
2022-08-07T04:40:52.466Z,85.50
2022-08-07T04:44:12.742Z,87.00
2022-08-07T04:47:04.067Z,89.80
2022-08-07T04:49:41.849Z,86.70
2022-08-07T04:52:29.410Z,86.80
2022-08-07T04:55:15.021Z,86.90
2022-08-07T04:58:12.865Z,86.30
2022-08-07T05:00:50.658Z,87.30
2022-08-07T05:03:59.921Z,86.80
2022-08-07T05:06:20.043Z,88.20
2022-08-07T05:09:02.300Z,86.70
2022-08-07T05:11:57.075Z,86.70
2022-08-07T05:14:52.592Z,86.00
2022-08-07T05:17:52.156Z,86.20
2022-08-07T05:20:25.779Z,87.80
2022-08-07T05:23:02.581Z,87.50
2022-08-07T05:26:12.997Z,87.30
2022-08-07T05:28:29.553Z,87.60
2022-08-07T05:31:01.904Z,87.70
2022-08-07T05:33:37.426Z,86.50
2022-08-07T05:36:12.067Z,86.50
2022-08-07T05:39:01.418Z,88.40
2022-08-07T05:42:01.803Z,87.60
2022-08-07T05:44:37.107Z,87.00
2022-08-07T05:47:20.899Z,88.50
2022-08-07T05:50:10.705Z,88.80
2022-08-07T05:52:44.668Z,88.70
2022-08-07T05:55:17.808Z,90.40
2022-08-07T05:57:53.574Z,89.50
2022-08-07T06:00:26.495Z,90.00
2022-08-07T06:03:06.129Z,90.20
2022-08-07T06:05:37.356Z,89.70
2022-08-07T06:08:30.123Z,89.70
2022-08-07T06:11:03.727Z,88.70
2022-08-07T06:14:12.339Z,88.30
2022-08-07T06:16:31.297Z,88.20
2022-08-07T06:19:06.468Z,88.40
2022-08-07T06:22:14.759Z,87.70
2022-08-07T06:24:46.347Z,90.30
2022-08-07T06:27:44.270Z,89.80
2022-08-07T06:30:32.226Z,86.80
2022-08-07T06:33:16.599Z,86.20
2022-08-07T06:36:12.839Z,86.60
2022-08-07T06:38:59.161Z,85.90
2022-08-07T06:42:02.854Z,86.40
2022-08-07T06:44:51.066Z,87.00
2022-08-07T06:47:26.879Z,86.40
2022-08-07T06:49:59.952Z,88.20
2022-08-07T06:52:40.786Z,86.60
2022-08-07T06:55:33.577Z,87.90
2022-08-07T06:58:12.702Z,86.60
2022-08-07T07:00:53.249Z,84.70
2022-08-07T07:03:47.484Z,83.50
2022-08-07T07:06:23.969Z,85.10
2022-08-07T07:08:58.599Z,84.80
2022-08-07T07:12:07.968Z,85.50
2022-08-07T07:14:25.185Z,83.50
2022-08-07T07:16:58.927Z,83.10
2022-08-07T07:19:57.442Z,82.40
2022-08-07T07:22:35.765Z,82.30
2022-08-07T07:26:31.152Z,81.70
2022-08-07T07:28:07.818Z,81.30
2022-08-07T07:30:58.979Z,82.30
2022-08-07T07:33:31.312Z,82.90
2022-08-07T07:36:13.274Z,81.90
2022-08-07T07:38:48.298Z,81.30
2022-08-07T07:41:20.633Z,82.50
2022-08-07T07:44:17.596Z,82.10
2022-08-07T07:46:55.835Z,82.30
2022-08-07T07:50:35.021Z,82.40
2022-08-07T07:52:27.339Z,81.10
2022-08-07T07:54:58.709Z,81.70
2022-08-07T07:57:51.862Z,81.30
2022-08-07T08:00:29.637Z,82.00
2022-08-07T08:03:07.913Z,81.80
2022-08-07T08:05:54.565Z,82.60
2022-08-07T08:08:34.328Z,83.30
2022-08-07T08:11:09.182Z,82.20
2022-08-07T08:13:53.989Z,83.10
2022-08-07T08:16:31.027Z,81.60
2022-08-07T08:19:09.648Z,82.30
2022-08-07T08:22:03.961Z,81.00
2022-08-07T08:25:04.414Z,82.00
2022-08-07T08:27:44.021Z,82.00
2022-08-07T08:30:28.877Z,81.00
2022-08-07T08:33:01.780Z,80.10
2022-08-07T08:35:38.980Z,80.20
2022-08-07T08:38:11.674Z,80.20
2022-08-07T08:40:49.331Z,80.40
2022-08-07T08:43:32.083Z,80.10
2022-08-07T08:46:16.273Z,81.30
2022-08-07T08:48:54.508Z,81.00
2022-08-07T08:52:12.872Z,80.10
2022-08-07T08:54:26.263Z,79.90
2022-08-07T08:57:02.162Z,80.00
2022-08-07T08:59:42.345Z,79.90
2022-08-07T09:02:34.824Z,79.40
2022-08-07T09:05:15.794Z,81.10
2022-08-07T09:07:57.644Z,79.30
2022-08-07T09:10:31.155Z,78.90
2022-08-07T09:13:09.703Z,79.40
2022-08-07T09:16:25.528Z,78.90
2022-08-07T09:18:52.921Z,78.60
2022-08-07T09:21:34.457Z,78.30
2022-08-07T09:24:55.163Z,78.50
2022-08-07T09:27:27.390Z,78.00
2022-08-07T09:30:08.907Z,76.90
2022-08-07T09:32:57.891Z,75.10
2022-08-07T09:36:02.739Z,74.30
2022-08-07T09:38:34.346Z,75.70
2022-08-07T09:41:10.995Z,73.60
2022-08-07T09:44:06.410Z,74.00
2022-08-07T09:47:51.541Z,74.10
2022-08-07T09:50:00.802Z,74.00
2022-08-07T09:52:51.601Z,71.40
2022-08-07T09:56:02.796Z,72.20
2022-08-07T09:58:32.432Z,71.90
2022-08-07T10:01:51.546Z,71.10
2022-08-07T10:04:27.915Z,71.00
2022-08-07T10:07:24.510Z,69.80
2022-08-07T10:10:06.479Z,68.90
2022-08-07T10:12:53.164Z,69.10
2022-08-07T10:15:37.810Z,66.50
2022-08-07T10:18:26.668Z,66.00
2022-08-07T10:21:50.573Z,65.40
2022-08-07T10:24:21.519Z,64.60
2022-08-07T10:26:56.285Z,64.90
2022-08-07T10:29:43.172Z,63.20
2022-08-07T10:32:37.042Z,64.50
2022-08-07T10:35:20.353Z,61.40
2022-08-07T10:38:21.234Z,60.90
2022-08-07T10:40:55.089Z,60.00
2022-08-07T10:43:34.825Z,59.20
2022-08-07T10:46:10.671Z,60.20
2022-08-07T10:48:48.788Z,60.20
2022-08-07T10:51:39.146Z,58.60
2022-08-07T10:54:21.748Z,59.30
2022-08-07T10:56:58.884Z,59.50
2022-08-07T10:59:37.301Z,59.70
2022-08-07T11:02:33.056Z,58.90
2022-08-07T11:05:11.448Z,57.20
2022-08-07T11:07:58.507Z,57.20
2022-08-07T11:10:47.672Z,55.90
2022-08-07T11:14:41.931Z,56.20
2022-08-07T11:16:20.713Z,56.40
2022-08-07T11:19:05.444Z,54.60
2022-08-07T11:21:43.129Z,56.30
2022-08-07T11:24:17.890Z,55.20
2022-08-07T11:26:56.838Z,53.50
2022-08-07T11:29:43.006Z,54.20
2022-08-07T11:32:25.788Z,52.80
2022-08-07T11:34:59.737Z,53.30
2022-08-07T11:37:57.860Z,53.80
2022-08-07T11:40:35.925Z,54.00
2022-08-07T11:43:16.758Z,54.30
2022-08-07T11:46:18.136Z,54.20
2022-08-07T11:49:50.172Z,52.10
2022-08-07T11:52:02.532Z,51.30
2022-08-07T11:54:37.740Z,52.70
2022-08-07T11:57:14.360Z,52.40
2022-08-07T12:00:11.410Z,53.50
2022-08-07T12:03:03.580Z,51.60
2022-08-07T12:05:49.073Z,52.00
2022-08-07T12:08:25.628Z,52.00
2022-08-07T12:11:19.999Z,51.20
2022-08-07T12:13:55.458Z,51.40
2022-08-07T12:16:31.880Z,50.50
2022-08-07T12:19:08.255Z,51.80
2022-08-07T12:22:36.925Z,51.60
2022-08-07T12:24:37.258Z,52.00
2022-08-07T12:27:27.738Z,50.10
2022-08-07T12:30:02.276Z,51.50
2022-08-07T12:32:39.713Z,50.40
2022-08-07T12:35:13.645Z,51.10
2022-08-07T12:38:10.857Z,52.70
2022-08-07T12:40:47.861Z,50.20
2022-08-07T12:44:02.484Z,51.00
2022-08-07T12:46:32.135Z,51.50
2022-08-07T12:49:40.112Z,51.50
2022-08-07T12:52:14.521Z,49.90
2022-08-07T12:54:56.083Z,52.10
2022-08-07T12:57:39.095Z,52.10
2022-08-07T13:00:32.545Z,51.50
2022-08-07T13:03:53.575Z,50.20
2022-08-07T13:06:29.512Z,51.20
2022-08-07T13:10:10.917Z,50.50
2022-08-07T13:12:03.473Z,51.60
2022-08-07T13:15:01.035Z,50.70
2022-08-07T13:17:41.090Z,50.10
2022-08-07T13:20:18.265Z,50.10
2022-08-07T13:23:03.783Z,49.80
2022-08-07T13:25:38.979Z,49.00
2022-08-07T13:28:24.307Z,49.00
2022-08-07T13:31:01.822Z,49.70
2022-08-07T13:34:29.773Z,48.50
2022-08-07T13:36:39.704Z,47.80
2022-08-07T13:39:28.488Z,47.20
2022-08-07T13:42:21.448Z,45.90
2022-08-07T13:45:11.699Z,48.30
2022-08-07T13:48:06.436Z,48.20
2022-08-07T13:50:45.241Z,44.80
2022-08-07T13:53:55.341Z,47.80
2022-08-07T13:56:36.342Z,48.10
2022-08-07T13:59:15.846Z,47.00
2022-08-07T14:01:59.399Z,46.70
2022-08-07T14:04:48.965Z,49.60
2022-08-07T14:07:22.781Z,45.30
2022-08-07T14:10:01.210Z,46.10
2022-08-07T14:12:54.898Z,45.40
2022-08-07T14:15:35.069Z,46.20
2022-08-07T14:18:23.691Z,46.10
2022-08-07T14:21:11.891Z,44.40
2022-08-07T14:24:01.153Z,42.80
2022-08-07T14:26:35.888Z,45.20
2022-08-07T14:30:07.820Z,42.50
2022-08-07T14:32:08.047Z,42.70
2022-08-07T14:34:45.490Z,43.40
2022-08-07T14:37:19.511Z,45.20
2022-08-07T14:40:19.579Z,43.20
2022-08-07T14:43:55.756Z,44.50
2022-08-07T14:45:54.531Z,42.60
2022-08-07T14:48:28.913Z,39.90
2022-08-07T14:51:07.496Z,42.70
2022-08-07T14:54:05.880Z,44.10
2022-08-07T14:56:43.165Z,43.90
2022-08-07T15:00:03.683Z,43.60
2022-08-07T15:02:34.159Z,42.80
2022-08-07T15:05:20.033Z,41.90
2022-08-07T15:07:52.583Z,42.40
2022-08-07T15:10:29.572Z,42.70
2022-08-07T15:13:06.639Z,43.20
2022-08-07T15:15:52.422Z,42.50
2022-08-07T15:18:35.859Z,40.20
2022-08-07T15:21:44.393Z,41.20
2022-08-07T15:25:14.461Z,39.60
2022-08-07T15:26:55.120Z,40.80
2022-08-07T15:30:08.969Z,41.90
2022-08-07T15:35:16.879Z,39.40
2022-08-07T15:38:18.138Z,39.90
2022-08-07T15:40:48.892Z,41.00
2022-08-07T15:43:53.518Z,41.00
2022-08-07T15:46:32.508Z,40.00
2022-08-07T15:52:10.691Z,39.70
2022-08-07T15:54:45.207Z,40.10
2022-08-07T15:57:48.021Z,41.00
2022-08-07T16:00:31.400Z,41.00
2022-08-07T16:03:06.041Z,38.10
2022-08-07T16:05:39.998Z,39.00
2022-08-07T16:08:31.706Z,38.70
2022-08-07T16:11:26.994Z,39.90
2022-08-07T16:14:04.528Z,38.90
2022-08-07T16:16:48.292Z,38.10
2022-08-07T16:19:42.605Z,40.60
2022-08-07T16:22:55.765Z,40.30
2022-08-07T16:25:53.946Z,38.50
2022-08-07T16:30:06.123Z,41.10
2022-08-07T16:31:50.900Z,39.60
2022-08-07T16:34:27.358Z,39.40
2022-08-07T16:38:06.694Z,39.30
2022-08-07T16:40:28.109Z,39.30
2022-08-07T16:43:09.820Z,37.50
2022-08-07T16:46:47.167Z,40.40
2022-08-07T16:50:29.136Z,38.80
2022-08-07T16:52:49.242Z,39.90
2022-08-07T16:55:08.108Z,41.50
2022-08-07T16:58:02.644Z,40.80
2022-08-07T17:00:42.185Z,40.10
2022-08-07T17:03:58.038Z,42.60
2022-08-07T17:06:29.909Z,41.20
2022-08-07T17:09:10.944Z,41.70
2022-08-07T17:12:04.705Z,42.70
2022-08-07T17:14:46.556Z,42.00
2022-08-07T17:17:44.146Z,43.10
2022-08-07T17:20:20.834Z,42.50
2022-08-07T17:22:59.291Z,43.30
2022-08-07T17:25:51.069Z,41.80
2022-08-07T17:28:31.117Z,42.40
2022-08-07T17:31:16.157Z,43.50
2022-08-07T17:34:15.428Z,42.80
2022-08-07T17:37:08.919Z,43.40
2022-08-07T17:39:58.295Z,42.40
2022-08-07T17:42:59.853Z,44.70
2022-08-07T17:45:35.506Z,42.20
2022-08-07T17:48:11.062Z,42.60
2022-08-07T17:51:01.646Z,42.80
2022-08-07T17:59:57.084Z,44.50
2022-08-07T18:02:33.198Z,44.40
2022-08-07T18:05:20.890Z,45.50
2022-08-07T18:12:06.914Z,45.80
2022-08-07T18:13:48.635Z,45.10
2022-08-07T18:16:32.728Z,45.90
2022-08-07T18:21:10.555Z,45.90
2022-08-07T18:22:17.012Z,47.10
2022-08-07T18:24:50.064Z,47.10
2022-08-07T18:27:38.256Z,46.20
2022-08-07T18:30:31.644Z,46.30
2022-08-07T18:33:17.980Z,45.80
2022-08-07T18:35:57.218Z,47.20
2022-08-07T18:38:57.071Z,44.70
2022-08-07T18:41:45.397Z,46.90
2022-08-07T18:44:32.278Z,46.80
2022-08-07T18:47:08.113Z,47.60
2022-08-07T18:50:32.510Z,47.60
2022-08-07T18:52:56.744Z,48.80
2022-08-07T18:55:42.301Z,46.70
2022-08-07T18:58:32.710Z,47.80
2022-08-07T19:02:18.214Z,48.20
2022-08-07T19:04:09.813Z,46.80
2022-08-07T19:06:51.400Z,48.60
2022-08-07T19:09:57.717Z,49.00
2022-08-07T19:12:26.275Z,48.00
2022-08-07T19:16:02.380Z,47.70
2022-08-07T19:18:15.455Z,47.50
2022-08-07T19:21:08.446Z,47.90
2022-08-07T19:23:58.517Z,49.80
2022-08-07T19:28:28.286Z,49.50
2022-08-07T19:30:57.665Z,49.10
2022-08-07T19:32:26.658Z,48.80
2022-08-07T19:35:03.738Z,48.40
2022-08-07T19:37:56.425Z,49.90
2022-08-07T19:40:31.151Z,49.30
2022-08-07T19:43:05.021Z,47.50
2022-08-07T19:46:05.909Z,50.10
2022-08-07T19:48:42.334Z,49.60
2022-08-07T19:51:52.657Z,51.00
2022-08-07T19:54:33.335Z,49.60
2022-08-07T19:58:00.290Z,51.50
2022-08-07T19:59:57.149Z,50.50
2022-08-07T20:02:32.227Z,51.10
2022-08-07T20:05:07.810Z,49.40
2022-08-07T20:07:46.606Z,49.90
2022-08-07T20:10:37.126Z,51.10
2022-08-07T20:13:23.709Z,50.90
2022-08-07T20:15:59.846Z,49.00
2022-08-07T20:18:33.661Z,50.30
2022-08-07T20:21:20.874Z,49.30
2022-08-07T20:24:00.312Z,51.20
2022-08-07T20:26:45.065Z,51.00
2022-08-07T20:29:48.093Z,51.40
2022-08-07T20:32:22.264Z,49.40
2022-08-07T20:34:56.827Z,51.50
2022-08-07T20:37:33.565Z,52.50
2022-08-07T20:40:32.437Z,51.30
2022-08-07T20:43:00.519Z,49.70
2022-08-07T20:46:28.666Z,50.50
2022-08-07T20:48:30.337Z,49.90
2022-08-07T20:51:03.027Z,49.90
2022-08-07T20:54:04.785Z,49.40
2022-08-07T20:56:32.405Z,51.00
2022-08-07T20:59:06.083Z,51.40
2022-08-07T21:01:58.331Z,49.90
2022-08-07T21:04:32.438Z,52.60
2022-08-07T21:07:14.594Z,50.60
2022-08-07T21:10:00.178Z,50.40
2022-08-07T21:12:37.522Z,51.00
2022-08-07T21:15:18.722Z,52.00
2022-08-07T21:18:03.695Z,50.70
2022-08-07T21:20:40.975Z,51.40
2022-08-07T21:23:50.255Z,50.40
2022-08-07T21:26:30.820Z,52.30
2022-08-07T21:29:15.750Z,51.30
2022-08-07T21:32:47.636Z,51.50
2022-08-07T21:34:46.329Z,52.20
2022-08-07T21:37:22.948Z,51.90
2022-08-07T21:39:56.997Z,51.40
2022-08-07T21:42:49.343Z,52.20
2022-08-07T21:46:08.512Z,52.00
2022-08-07T21:48:29.032Z,50.60
2022-08-07T21:51:12.418Z,51.60
2022-08-07T21:53:54.162Z,51.30
2022-08-07T21:56:40.250Z,51.30
2022-08-07T21:59:36.432Z,52.70
2022-08-07T22:02:29.696Z,51.30
2022-08-07T22:05:03.240Z,52.80
2022-08-07T22:07:57.774Z,52.40
2022-08-07T22:10:32.710Z,52.80
2022-08-07T22:13:05.785Z,51.50
2022-08-07T22:16:43.043Z,53.00
2022-08-07T22:18:40.906Z,52.50
2022-08-07T22:21:17.428Z,52.90
2022-08-07T22:23:53.827Z,51.40
2022-08-07T22:26:26.931Z,51.00
2022-08-07T22:29:01.072Z,51.60
2022-08-07T22:31:56.357Z,53.20
2022-08-07T22:34:39.155Z,51.10
2022-08-07T22:37:16.458Z,52.20
2022-08-07T22:39:52.660Z,53.20
2022-08-07T22:42:54.078Z,51.30
2022-08-07T22:46:04.272Z,51.50
2022-08-07T22:48:13.530Z,51.50
2022-08-07T22:51:17.477Z,50.50
2022-08-07T22:54:06.526Z,51.80
2022-08-07T22:56:45.494Z,51.30
2022-08-07T22:59:27.474Z,53.80
2022-08-07T23:02:23.484Z,52.40
2022-08-07T23:06:10.027Z,52.10
2022-08-07T23:07:57.623Z,52.30
2022-08-07T23:10:42.116Z,53.60
2022-08-07T23:13:48.517Z,53.20
2022-08-07T23:16:44.623Z,53.70
2022-08-07T23:19:51.252Z,52.10
2022-08-07T23:22:29.477Z,51.80
2022-08-07T23:25:06.445Z,51.70
2022-08-07T23:28:21.129Z,54.70
2022-08-07T23:31:05.674Z,52.20
2022-08-07T23:34:34.013Z,52.20
2022-08-07T23:37:17.658Z,52.70
2022-08-07T23:39:41.143Z,53.40
2022-08-07T23:42:21.814Z,53.20
2022-08-07T23:45:15.294Z,52.30
2022-08-07T23:48:15.638Z,54.50
2022-08-07T23:50:54.545Z,53.80
2022-08-07T23:53:49.493Z,53.90
2022-08-07T23:56:24.752Z,53.40
2022-08-07T23:59:10.728Z,53.20
